Hlavní strana
METAR-TAF:

METAR-TAF

Letiště :

Magnitogorsk, Rusko

zeměpisná šířka: 53-23-36N, zeměpisná délka: 058-45-24E, výška: 436 m

Aktuální stav počasí

Zpráva byla vytvořena před 31 minutami, v 00:00 UTC
Severozápadní vítr 4 kt
Teplota -4°C
Vlhkost vzduchu 54%
Tlak 1020 hPa
Viditelnost 10 km a více

METAR: USCM 200000Z 31002MPS 9999 NSC M04/M12 Q1020 R36/090060 NOSIG RMK QFE726

Čas: 05:31 (00:31 UTC)

Předpověď počasí

Zpráva byla vytvořena před 1 hodinou a 31 minutami, v 23:00 UTC
Předpověď platná od 20 v 00 UTC do 20 v 09 UTC
Severozápadní vítr 6 kt s nárazy do 16 kt
Viditelnost 10 km a více
Polojasno ve výšce 4000 ft
Dočasný
od 20 v 00 UTC do 20 v 06 UTC
Severní vítr 6 kt s nárazy do 16 kt
Viditelnost: 5000 m
kouřmo

TAF: USCM 192300Z 2000/2009 32003G08MPS 9999 SCT040 TEMPO 2000/2006 35003G08MPS 5000 BR

Stav a předpovědi počasí z více než 4 000 letišť (zprávy METAR a TAF).

Červené a žluté tečky na mapě představují dostupné meteorologické stanice.

Když kurzor umístíte na tečku, zobrazí se název stanice.

Pak kliknutím zobrazíte stav a předpověď počasí.

Chcete-li změnit mapu, kliknutím na zelené tlačítko se znaménkem +mapu přiblížíte, kliknutím na zelené tlačítko se znaménkem – mapu oddálíte a kliknutím na zelené šipky přejdete na sousední mapy.


METAR-TAF: